createdAt,value
2017-08-11T00:04:15.483Z,100307
2017-08-11T00:07:14.139Z,100279
2017-08-11T00:09:42.435Z,100248
2017-08-11T00:12:10.678Z,100219
2017-08-11T00:14:38.925Z,100233
2017-08-11T00:17:07.240Z,100214
2017-08-11T00:19:35.505Z,100236
2017-08-11T00:22:03.737Z,100236
2017-08-11T00:24:32.823Z,100223
2017-08-11T00:27:01.836Z,100218
2017-08-11T00:29:30.068Z,100202
2017-08-11T00:31:58.320Z,100167
2017-08-11T00:34:26.543Z,100146
2017-08-11T00:36:55.614Z,100127
2017-08-11T00:39:23.839Z,100115
2017-08-11T00:41:52.062Z,100102
2017-08-11T00:44:20.341Z,100078
2017-08-11T00:47:14.238Z,100067
2017-08-11T00:55:44.566Z,100014
2017-08-11T00:58:12.828Z,100003
2017-08-11T01:03:40.847Z,100035
2017-08-11T01:06:09.125Z,100047
2017-08-11T01:08:38.141Z,100094
2017-08-11T01:11:06.446Z,100148
2017-08-11T01:13:34.674Z,100141
2017-08-11T01:19:03.895Z,100127
2017-08-11T01:21:32.116Z,100119
2017-08-11T01:24:00.359Z,100113
2017-08-11T01:26:28.614Z,100095
2017-08-11T01:34:57.988Z,100064
2017-08-11T01:37:26.249Z,100061
2017-08-11T01:39:54.500Z,100068
2017-08-11T01:42:22.770Z,100055
2017-08-11T01:45:14.711Z,100029
2017-08-11T01:47:43.004Z,100012
2017-08-11T01:50:11.994Z,99987
2017-08-11T01:52:40.986Z,99967
2017-08-11T01:55:10.051Z,99955
2017-08-11T02:00:38.331Z,100012
2017-08-11T02:03:06.555Z,100003
2017-08-11T02:05:35.538Z,99994
2017-08-11T02:08:04.894Z,100008
2017-08-11T02:13:33.642Z,100081
2017-08-11T02:16:02.744Z,100185
2017-08-11T02:18:31.008Z,100169
2017-08-11T02:21:00.050Z,100164
2017-08-11T02:23:28.301Z,100155
2017-08-11T02:28:56.594Z,100076
2017-08-11T02:31:24.841Z,100113
2017-08-11T02:33:53.258Z,100120
2017-08-11T02:36:21.491Z,100095
2017-08-11T02:41:50.096Z,100108
2017-08-11T02:44:18.336Z,100102
2017-08-11T02:46:46.645Z,100080
2017-08-11T02:49:14.887Z,100068
2017-08-11T02:51:43.133Z,100061
2017-08-11T02:54:11.456Z,100051
2017-08-11T02:56:39.698Z,100013
2017-08-11T02:59:07.930Z,99993
2017-08-11T03:01:37.011Z,99977
2017-08-11T03:04:05.240Z,99973
2017-08-11T03:06:33.491Z,99972
2017-08-11T03:12:02.682Z,99992
2017-08-11T03:14:30.925Z,100001
2017-08-11T03:16:59.178Z,100021
2017-08-11T03:19:27.445Z,100029
2017-08-11T03:24:56.745Z,100032
2017-08-11T03:27:25.783Z,100028
2017-08-11T03:29:54.028Z,100030
2017-08-11T03:32:22.340Z,100025
2017-08-11T03:34:50.579Z,100028
2017-08-11T03:37:18.825Z,100024
2017-08-11T03:39:47.089Z,100032
2017-08-11T03:42:15.334Z,100010
2017-08-11T03:44:43.603Z,100011
2017-08-11T03:47:11.834Z,100008
2017-08-11T03:52:41.106Z,99994
2017-08-11T03:55:09.339Z,99978
2017-08-11T03:57:37.598Z,99974
2017-08-11T04:00:05.891Z,99968
2017-08-11T04:02:34.150Z,99979
2017-08-11T04:05:16.044Z,99976
2017-08-11T04:07:44.278Z,99959
2017-08-11T04:10:12.521Z,99948
2017-08-11T04:12:40.813Z,99964
2017-08-11T04:15:09.063Z,99958
2017-08-11T04:20:38.233Z,99994
2017-08-11T04:23:06.477Z,99999
2017-08-11T04:25:34.736Z,100012
2017-08-11T04:28:02.980Z,100003
2017-08-11T04:30:32.114Z,99992
2017-08-11T04:33:15.000Z,99982
2017-08-11T04:35:44.075Z,99998
2017-08-11T04:38:12.314Z,100015
2017-08-11T04:40:40.568Z,100011
2017-08-11T04:43:08.875Z,100010
2017-08-11T04:45:37.150Z,100006
2017-08-11T04:48:05.400Z,100005
2017-08-11T04:50:33.702Z,100008
2017-08-11T04:53:01.952Z,100005
2017-08-11T04:55:30.217Z,99991
2017-08-11T04:57:58.517Z,99986
2017-08-11T05:03:27.313Z,99988
2017-08-11T05:05:55.582Z,100007
2017-08-11T05:08:23.815Z,100062
2017-08-11T05:10:52.107Z,100076
2017-08-11T05:13:20.353Z,100046
2017-08-11T05:15:48.582Z,100041
2017-08-11T05:18:17.607Z,100053
2017-08-11T05:20:46.286Z,99994
2017-08-11T05:23:14.535Z,99977
2017-08-11T05:25:42.766Z,99977
2017-08-11T05:31:10.803Z,99996
2017-08-11T05:33:39.036Z,100010
2017-08-11T05:36:07.434Z,100040
2017-08-11T05:38:36.418Z,100069
2017-08-11T05:41:18.095Z,100094
2017-08-11T05:43:46.354Z,100137
2017-08-11T05:46:14.596Z,100159
2017-08-11T05:48:42.903Z,100167
2017-08-11T05:51:11.162Z,100157
2017-08-11T05:53:39.418Z,100161
2017-08-11T05:56:16.224Z,100183
2017-08-11T05:58:44.470Z,100173
2017-08-11T06:01:12.739Z,100162
2017-08-11T06:03:41.007Z,100155
2017-08-11T06:06:10.044Z,100155
2017-08-11T06:08:38.293Z,100146
2017-08-11T06:11:06.590Z,100147
2017-08-11T06:13:34.836Z,100140
2017-08-11T06:16:03.086Z,100145
2017-08-11T06:18:32.184Z,100114
2017-08-11T06:21:01.200Z,100093
2017-08-11T06:26:29.539Z,100058
2017-08-11T06:28:57.843Z,100095
2017-08-11T06:31:26.088Z,100084
2017-08-11T06:33:54.337Z,100076
2017-08-11T06:36:22.638Z,100079
2017-08-11T06:38:50.865Z,100094
2017-08-11T06:41:19.098Z,100105
2017-08-11T06:43:47.358Z,100138
2017-08-11T06:46:15.591Z,100132
2017-08-11T06:48:44.673Z,100096
2017-08-11T06:54:14.106Z,100099
2017-08-11T06:56:43.109Z,100080
2017-08-11T07:02:12.022Z,100066
2017-08-11T07:07:40.038Z,100057
2017-08-11T07:10:08.274Z,100041
2017-08-11T07:12:37.292Z,100020
2017-08-11T07:15:05.605Z,100026
2017-08-11T07:17:33.888Z,100015
2017-08-11T07:23:02.158Z,99997
2017-08-11T07:28:31.246Z,99994
2017-08-11T07:31:16.509Z,99994
2017-08-11T07:34:14.523Z,99999
2017-08-11T07:36:43.968Z,99999
2017-08-11T07:39:16.403Z,100015
2017-08-11T07:48:14.318Z,100233
2017-08-11T07:50:42.543Z,100178
2017-08-11T07:53:16.810Z,100136
2017-08-11T07:59:16.132Z,100123
2017-08-11T08:04:44.369Z,100065
2017-08-11T08:10:14.180Z,100059
2017-08-11T08:12:43.199Z,100051
2017-08-11T08:15:37.338Z,100024
2017-08-11T08:18:18.003Z,100012
2017-08-11T08:21:14.796Z,100005
2017-08-11T08:26:54.262Z,100000
2017-08-11T08:29:22.509Z,100008
2017-08-11T08:32:16.730Z,99991
2017-08-11T08:35:14.620Z,99987
2017-08-11T08:44:04.259Z,99993
2017-08-11T08:49:32.251Z,99999
2017-08-11T08:52:00.503Z,100011
2017-08-11T08:57:28.961Z,100054
2017-08-11T09:06:17.884Z,100078
2017-08-11T09:15:10.619Z,100112
2017-08-11T09:33:06.273Z,100124
2017-08-11T09:41:36.765Z,100091
2017-08-11T09:47:18.380Z,100094
2017-08-11T09:56:15.309Z,100102
2017-08-11T10:01:48.227Z,100120
2017-08-11T10:04:16.449Z,100111
2017-08-11T10:06:44.733Z,100104
2017-08-11T10:09:13.043Z,100103
2017-08-11T10:26:50.383Z,100110
2017-08-11T10:35:19.946Z,100057
2017-08-11T10:40:48.606Z,100035
2017-08-11T10:43:16.864Z,100007
2017-08-11T10:54:46.261Z,100022
2017-08-11T10:57:17.530Z,100014
2017-08-11T10:59:45.837Z,100018
2017-08-11T11:02:14.064Z,100000
2017-08-11T11:07:43.505Z,100017
2017-08-11T11:10:11.743Z,100015
2017-08-11T11:12:39.978Z,100010
2017-08-11T11:15:09.015Z,100006
2017-08-11T11:20:38.060Z,100028
2017-08-11T11:26:07.447Z,100101
2017-08-11T11:28:35.678Z,100174
2017-08-11T11:31:04.730Z,100196
2017-08-11T11:36:34.377Z,100161
2017-08-11T11:39:02.621Z,100154
2017-08-11T11:41:30.849Z,100155
2017-08-11T11:47:00.819Z,100074
2017-08-11T11:49:29.051Z,100025
2017-08-11T11:51:58.071Z,100016
2017-08-11T11:54:26.363Z,100023
2017-08-11T11:56:54.589Z,99996
2017-08-11T12:05:14.474Z,99942
2017-08-11T12:16:44.729Z,99889
2017-08-11T12:19:12.953Z,99883
2017-08-11T12:21:41.282Z,99885
2017-08-11T12:24:09.516Z,99862
2017-08-11T12:26:38.515Z,99863
2017-08-11T12:29:07.573Z,99854
2017-08-11T12:31:35.786Z,99863
2017-08-11T12:34:04.012Z,99853
2017-08-11T12:36:32.327Z,99859
2017-08-11T12:39:01.322Z,99847
2017-08-11T12:41:30.333Z,99837
2017-08-11T12:43:58.625Z,99829
2017-08-11T12:46:26.838Z,99802
2017-08-11T12:51:55.379Z,99797
2017-08-11T12:54:23.700Z,99793
2017-08-11T12:59:53.101Z,99785
2017-08-11T13:05:22.669Z,99794
2017-08-11T13:07:50.903Z,99789
2017-08-11T13:10:19.124Z,99793
2017-08-11T13:12:47.400Z,99783
2017-08-11T13:15:15.625Z,99786
2017-08-11T13:17:43.850Z,99785
2017-08-11T13:20:12.166Z,99793
2017-08-11T13:22:40.402Z,99802
2017-08-11T13:28:08.880Z,99806
2017-08-11T13:30:37.150Z,99801
2017-08-11T13:33:05.403Z,99809
2017-08-11T13:35:33.696Z,99811
2017-08-11T13:38:01.916Z,99812
2017-08-11T13:40:30.171Z,99813
2017-08-11T13:42:58.663Z,99821
2017-08-11T13:45:27.690Z,99823
2017-08-11T13:47:55.961Z,99823
2017-08-11T13:50:24.254Z,99830
2017-08-11T13:52:52.500Z,99829
2017-08-11T13:55:21.494Z,99826
2017-08-11T13:57:50.551Z,99812
2017-08-11T14:00:18.783Z,99813
2017-08-11T14:02:47.021Z,99809
2017-08-11T14:05:16.109Z,99819
2017-08-11T14:07:44.353Z,99819
2017-08-11T14:10:12.600Z,99821
2017-08-11T14:12:40.919Z,99822
2017-08-11T14:15:09.155Z,99821
2017-08-11T14:17:37.383Z,99826
2017-08-11T14:20:05.701Z,99805
2017-08-11T14:22:33.931Z,99802
2017-08-11T14:25:02.173Z,99792
2017-08-11T14:27:30.436Z,99787
2017-08-11T14:29:58.719Z,99784
2017-08-11T14:32:26.971Z,99775
2017-08-11T14:35:15.209Z,99770
2017-08-11T14:37:43.455Z,99758
2017-08-11T14:40:11.759Z,99756
2017-08-11T14:42:40.791Z,99747
2017-08-11T14:45:09.012Z,99736
2017-08-11T14:47:38.054Z,99722
2017-08-11T14:50:06.353Z,99712
2017-08-11T14:52:34.579Z,99709
2017-08-11T14:55:16.294Z,99699
2017-08-11T15:01:14.927Z,99693
2017-08-11T15:03:43.159Z,99690
2017-08-11T15:06:11.447Z,99688
2017-08-11T15:11:40.516Z,99685
2017-08-11T15:14:16.675Z,99686
2017-08-11T15:17:15.266Z,99675
2017-08-11T15:25:51.044Z,99637
2017-08-11T15:28:19.679Z,99629
2017-08-11T15:31:15.265Z,99592
2017-08-11T15:39:40.946Z,99577
2017-08-11T15:42:16.056Z,99564
2017-08-11T15:44:45.085Z,99555
2017-08-11T15:47:13.306Z,99542
2017-08-11T15:49:41.596Z,99531
2017-08-11T15:52:10.624Z,99503
2017-08-11T15:54:39.227Z,99490
2017-08-11T15:57:07.562Z,99462
2017-08-11T15:59:35.798Z,99461
2017-08-11T16:02:04.039Z,99470
2017-08-11T16:04:32.319Z,99481
2017-08-11T16:07:00.577Z,99473
2017-08-11T16:09:28.903Z,99461
2017-08-11T16:11:57.152Z,99433
2017-08-11T16:14:25.382Z,99433
2017-08-11T16:16:54.405Z,99469
2017-08-11T16:19:22.703Z,99497
2017-08-11T16:21:50.945Z,99521
2017-08-11T16:24:19.253Z,99538
2017-08-11T16:26:47.532Z,99560
2017-08-11T16:29:17.000Z,99565
2017-08-11T16:31:45.293Z,99607
2017-08-11T16:34:13.534Z,99675
2017-08-11T16:36:42.540Z,99726
2017-08-11T16:39:16.616Z,99748
2017-08-11T16:41:44.843Z,99778
2017-08-11T16:44:13.075Z,99818
2017-08-11T16:46:41.348Z,99800
2017-08-11T16:49:09.764Z,99846
2017-08-11T16:51:38.015Z,99873
2017-08-11T16:57:07.149Z,100004
2017-08-11T16:59:35.396Z,99825
2017-08-11T17:02:04.416Z,99787
2017-08-11T17:04:32.711Z,99720
2017-08-11T18:11:58.198Z,99929
2017-08-11T18:17:33.605Z,99968
2017-08-11T18:20:03.243Z,99938
2017-08-11T18:22:32.915Z,99901
2017-08-11T18:25:12.143Z,99894
2017-08-11T18:27:41.815Z,99854
2017-08-11T18:36:00.757Z,99886
2017-08-11T18:41:25.766Z,99849
2017-08-11T18:46:50.791Z,99805
2017-08-11T18:49:43.337Z,99767
2017-08-11T18:52:33.799Z,99743
2017-08-11T18:58:14.859Z,99790
2017-08-11T19:03:39.914Z,99843
2017-08-11T19:06:32.624Z,99852
2017-08-11T19:20:40.611Z,99856
2017-08-11T19:26:04.948Z,99885
2017-08-11T19:31:29.241Z,99873
2017-08-11T19:36:54.755Z,99882
2017-08-11T19:42:33.200Z,99909
2017-08-11T19:45:25.141Z,99898
2017-08-11T19:47:54.801Z,99918
2017-08-11T20:07:58.415Z,99889
2017-08-11T20:22:06.814Z,99857
2017-08-11T20:27:32.421Z,99870
2017-08-11T20:38:47.188Z,99916
2017-08-11T20:44:11.932Z,99918
2017-08-11T20:46:41.821Z,99927
2017-08-11T20:49:11.439Z,99933
2017-08-11T20:52:00.621Z,99924
2017-08-11T21:00:19.531Z,99922
2017-08-11T21:02:49.124Z,99911
2017-08-11T21:08:13.338Z,99889
2017-08-11T21:10:42.920Z,99892
2017-08-11T21:13:12.503Z,99883
2017-08-11T21:15:42.171Z,99881
2017-08-11T21:26:55.904Z,99961
2017-08-11T21:29:25.473Z,99967
2017-08-11T21:34:49.882Z,99907
2017-08-11T21:37:19.489Z,99898
2017-08-11T21:39:49.091Z,99911
2017-08-11T21:42:18.745Z,99928
2017-08-11T21:47:44.645Z,99940
2017-08-11T21:50:33.634Z,99944
2017-08-11T21:53:03.308Z,99915
2017-08-11T21:55:32.912Z,99893
2017-08-11T21:58:02.541Z,99897
2017-08-11T22:06:22.524Z,99884
2017-08-11T22:08:52.130Z,99883
2017-08-11T22:11:21.765Z,99901
2017-08-11T22:19:41.441Z,99935
2017-08-11T22:22:11.065Z,99932
2017-08-11T22:24:40.672Z,99922
2017-08-11T22:33:00.490Z,99951
2017-08-11T22:35:30.076Z,99957
2017-08-11T22:37:59.745Z,99963
2017-08-11T22:43:24.007Z,100015
2017-08-11T22:45:53.585Z,100027
2017-08-11T22:48:23.206Z,100019
2017-08-11T22:50:52.845Z,100005
2017-08-11T22:53:22.433Z,99992
2017-08-11T22:55:52.036Z,99999
2017-08-11T23:01:16.696Z,99973
2017-08-11T23:03:46.312Z,99949
2017-08-11T23:06:15.897Z,99962
2017-08-11T23:17:29.297Z,99986
2017-08-11T23:19:58.888Z,99975
2017-08-11T23:22:35.200Z,99965
2017-08-11T23:25:04.814Z,99965
2017-08-11T23:30:30.393Z,99992
2017-08-11T23:33:00.001Z,100000
2017-08-11T23:35:29.599Z,99984
2017-08-11T23:37:59.420Z,99989
2017-08-11T23:43:24.442Z,100003
2017-08-11T23:45:54.039Z,100005
2017-08-11T23:48:23.868Z,100014
2017-08-11T23:57:03.242Z,99972
2017-08-11T23:59:32.841Z,99966
